Inicio METAR Ruta Wind Satelite

Informe Meteorológico

Fecha: 2021/09/21 14:32:18 Local
2021.09.21 19:32 UTC


Operación:
SKUC 211900Z 30006KT 9999 SCT015 31/24 Q1010 RMK A2984 =